sensor_id;sensor_type;location;lat;lon;timestamp;pressure;altitude;pressure_sealevel;temperature;humidity
20909;BME280;10614;53.198;6.570;2023-04-21T00:01:44;101854.25;;;10.29;100.00
20909;BME280;10614;53.198;6.570;2023-04-21T00:03:46;101855.16;;;10.28;100.00
20909;BME280;10614;53.198;6.570;2023-04-21T00:05:48;101855.16;;;10.25;100.00
20909;BME280;10614;53.198;6.570;2023-04-21T00:07:50;101854.38;;;10.22;100.00
20909;BME280;10614;53.198;6.570;2023-04-21T00:09:51;101849.97;;;10.22;100.00
20909;BME280;10614;53.198;6.570;2023-04-21T00:11:53;101846.53;;;10.20;100.00
20909;BME280;10614;53.198;6.570;2023-04-21T00:13:56;101847.47;;;10.18;100.00
20909;BME280;10614;53.198;6.570;2023-04-21T00:15:57;101844.81;;;10.18;100.00
20909;BME280;10614;53.198;6.570;2023-04-21T00:17:59;101850.13;;;10.16;100.00
20909;BME280;10614;53.198;6.570;2023-04-21T00:20:00;101841.34;;;10.15;100.00
20909;BME280;10614;53.198;6.570;2023-04-21T00:22:03;101846.69;;;10.14;100.00
20909;BME280;10614;53.198;6.570;2023-04-21T00:24:09;101844.94;;;10.13;100.00
20909;BME280;10614;53.198;6.570;2023-04-21T00:26:11;101835.31;;;10.12;100.00
20909;BME280;10614;53.198;6.570;2023-04-21T00:28:12;101826.59;;;10.08;100.00
20909;BME280;10614;53.198;6.570;2023-04-21T00:30:16;101824.91;;;10.07;100.00
20909;BME280;10614;53.198;6.570;2023-04-21T00:32:17;101821.44;;;10.05;100.00
20909;BME280;10614;53.198;6.570;2023-04-21T00:34:19;101812.69;;;10.05;100.00
20909;BME280;10614;53.198;6.570;2023-04-21T00:36:20;101810.94;;;10.04;100.00
20909;BME280;10614;53.198;6.570;2023-04-21T00:38:25;101818.81;;;10.04;100.00
20909;BME280;10614;53.198;6.570;2023-04-21T00:40:26;101805.72;;;10.02;100.00
20909;BME280;10614;53.198;6.570;2023-04-21T00:42:27;101806.59;;;10.03;100.00
20909;BME280;10614;53.198;6.570;2023-04-21T00:44:29;101807.44;;;10.03;100.00
20909;BME280;10614;53.198;6.570;2023-04-21T00:46:32;101806.59;;;10.03;100.00
20909;BME280;10614;53.198;6.570;2023-04-21T00:48:34;101805.78;;;9.99;100.00
20909;BME280;10614;53.198;6.570;2023-04-21T00:50:35;101805.84;;;9.96;100.00
20909;BME280;10614;53.198;6.570;2023-04-21T00:52:38;101805.88;;;9.94;100.00
20909;BME280;10614;53.198;6.570;2023-04-21T00:54:40;101804.19;;;9.92;100.00
20909;BME280;10614;53.198;6.570;2023-04-21T00:56:41;101804.22;;;9.90;100.00
20909;BME280;10614;53.198;6.570;2023-04-21T00:58:43;101800.75;;;9.88;100.00
20909;BME280;10614;53.198;6.570;2023-04-21T01:00:45;101797.28;;;9.86;100.00
20909;BME280;10614;53.198;6.570;2023-04-21T01:02:48;101802.56;;;9.85;100.00
20909;BME280;10614;53.198;6.570;2023-04-21T01:04:50;101791.22;;;9.83;100.00
20909;BME280;10614;53.198;6.570;2023-04-21T01:06:51;101798.25;;;9.82;100.00
20909;BME280;10614;53.198;6.570;2023-04-21T01:08:53;101790.38;;;9.81;100.00
20909;BME280;10614;53.198;6.570;2023-04-21T01:10:55;101790.47;;;9.78;100.00
20909;BME280;10614;53.198;6.570;2023-04-21T01:12:57;101791.41;;;9.75;100.00
20909;BME280;10614;53.198;6.570;2023-04-21T01:14:58;101794.09;;;9.72;100.00
20909;BME280;10614;53.198;6.570;2023-04-21T01:16:59;101799.38;;;9.72;100.00
20909;BME280;10614;53.198;6.570;2023-04-21T01:19:04;101786.25;;;9.69;100.00
20909;BME280;10614;53.198;6.570;2023-04-21T01:21:06;101790.72;;;9.67;100.00
20909;BME280;10614;53.198;6.570;2023-04-21T01:23:09;101781.09;;;9.64;100.00
20909;BME280;10614;53.198;6.570;2023-04-21T01:25:11;101782.91;;;9.62;100.00
20909;BME280;10614;53.198;6.570;2023-04-21T01:27:14;101778.56;;;9.60;100.00
20909;BME280;10614;53.198;6.570;2023-04-21T01:29:17;101771.59;;;9.57;100.00
20909;BME280;10614;53.198;6.570;2023-04-21T01:31:19;101776.00;;;9.57;100.00
20909;BME280;10614;53.198;6.570;2023-04-21T01:33:21;101775.16;;;9.56;100.00
20909;BME280;10614;53.198;6.570;2023-04-21T01:35:22;101768.16;;;9.55;100.00
20909;BME280;10614;53.198;6.570;2023-04-21T01:37:25;101765.50;;;9.55;100.00
20909;BME280;10614;53.198;6.570;2023-04-21T01:39:28;101767.34;;;9.53;100.00
20909;BME280;10614;53.198;6.570;2023-04-21T01:41:29;101767.38;;;9.50;100.00
20909;BME280;10614;53.198;6.570;2023-04-21T01:43:31;101772.69;;;9.48;100.00
20909;BME280;10614;53.198;6.570;2023-04-21T01:45:33;101751.72;;;9.45;100.00
20909;BME280;10614;53.198;6.570;2023-04-21T01:47:34;101757.00;;;9.44;100.00
20909;BME280;10614;53.198;6.570;2023-04-21T01:49:36;101750.00;;;9.43;100.00
20909;BME280;10614;53.198;6.570;2023-04-21T01:51:40;101751.94;;;9.35;100.00
20909;BME280;10614;53.198;6.570;2023-04-21T01:53:42;101750.19;;;9.35;100.00
20909;BME280;10614;53.198;6.570;2023-04-21T01:55:45;101748.47;;;9.33;100.00
20909;BME280;10614;53.198;6.570;2023-04-21T01:57:48;101760.75;;;9.32;100.00
20909;BME280;10614;53.198;6.570;2023-04-21T01:59:49;101750.28;;;9.29;100.00
20909;BME280;10614;53.198;6.570;2023-04-21T02:01:51;101751.19;;;9.28;100.00
20909;BME280;10614;53.198;6.570;2023-04-21T02:03:52;101750.38;;;9.24;100.00
20909;BME280;10614;53.198;6.570;2023-04-21T02:05:54;101758.34;;;9.21;100.00
20909;BME280;10614;53.198;6.570;2023-04-21T02:07:55;101754.00;;;9.20;100.00
20909;BME280;10614;53.198;6.570;2023-04-21T02:09:57;101766.31;;;9.15;100.00
20909;BME280;10614;53.198;6.570;2023-04-21T02:12:00;101758.41;;;9.17;100.00
20909;BME280;10614;53.198;6.570;2023-04-21T02:14:02;101750.56;;;9.15;100.00
20909;BME280;10614;53.198;6.570;2023-04-21T02:16:07;101758.50;;;9.12;100.00
20909;BME280;10614;53.198;6.570;2023-04-21T02:18:08;101746.31;;;9.09;100.00
20909;BME280;10614;53.198;6.570;2023-04-21T02:20:10;101743.69;;;9.08;100.00
20909;BME280;10614;53.198;6.570;2023-04-21T02:22:12;101741.97;;;9.07;100.00
20909;BME280;10614;53.198;6.570;2023-04-21T02:24:13;101745.53;;;9.04;100.00
20909;BME280;10614;53.198;6.570;2023-04-21T02:26:15;101743.78;;;9.03;100.00
20909;BME280;10614;53.198;6.570;2023-04-21T02:28:19;101736.91;;;8.98;100.00
20909;BME280;10614;53.198;6.570;2023-04-21T02:30:21;101754.34;;;9.02;100.00
20909;BME280;10614;53.198;6.570;2023-04-21T02:32:23;101749.09;;;9.00;100.00
20909;BME280;10614;53.198;6.570;2023-04-21T02:34:24;101752.63;;;8.99;100.00
20909;BME280;10614;53.198;6.570;2023-04-21T02:36:26;101741.28;;;8.97;100.00
20909;BME280;10614;53.198;6.570;2023-04-21T02:38:27;101746.56;;;8.96;100.00
20909;BME280;10614;53.198;6.570;2023-04-21T02:40:29;101739.59;;;8.95;100.00
20909;BME280;10614;53.198;6.570;2023-04-21T02:42:31;101738.78;;;8.91;100.00
20909;BME280;10614;53.198;6.570;2023-04-21T02:44:34;101740.56;;;8.89;100.00
20909;BME280;10614;53.198;6.570;2023-04-21T02:46:38;101732.72;;;8.87;100.00
20909;BME280;10614;53.198;6.570;2023-04-21T02:48:40;101740.63;;;8.86;100.00
20909;BME280;10614;53.198;6.570;2023-04-21T02:50:42;101737.16;;;8.84;100.00
20909;BME280;10614;53.198;6.570;2023-04-21T02:52:43;101747.66;;;8.84;100.00
20909;BME280;10614;53.198;6.570;2023-04-21T02:54:45;101739.81;;;8.82;100.00
20909;BME280;10614;53.198;6.570;2023-04-21T02:56:46;101737.22;;;8.81;100.00
20909;BME280;10614;53.198;6.570;2023-04-21T02:58:51;101738.09;;;8.80;100.00
20909;BME280;10614;53.198;6.570;2023-04-21T03:00:54;101731.16;;;8.77;100.00
20909;BME280;10614;53.198;6.570;2023-04-21T03:02:55;101736.44;;;8.76;100.00
20909;BME280;10614;53.198;6.570;2023-04-21T03:04:57;101733.81;;;8.76;100.00
20909;BME280;10614;53.198;6.570;2023-04-21T03:07:01;101738.22;;;8.74;100.00
20909;BME280;10614;53.198;6.570;2023-04-21T03:09:02;101739.97;;;8.73;100.00
20909;BME280;10614;53.198;6.570;2023-04-21T03:11:04;101735.63;;;8.72;100.00
20909;BME280;10614;53.198;6.570;2023-04-21T03:13:05;101739.97;;;8.73;100.00
20909;BME280;10614;53.198;6.570;2023-04-21T03:15:07;101734.75;;;8.72;100.00
20909;BME280;10614;53.198;6.570;2023-04-21T03:17:10;101734.75;;;8.72;100.00
20909;BME280;10614;53.198;6.570;2023-04-21T03:19:12;101742.63;;;8.72;100.00
20909;BME280;10614;53.198;6.570;2023-04-21T03:21:14;101734.78;;;8.70;100.00
20909;BME280;10614;53.198;6.570;2023-04-21T03:23:16;101746.13;;;8.71;100.00
20909;BME280;10614;53.198;6.570;2023-04-21T03:25:17;101732.19;;;8.69;100.00
20909;BME280;10614;53.198;6.570;2023-04-21T03:27:19;101742.72;;;8.67;100.00
20909;BME280;10614;53.198;6.570;2023-04-21T03:29:20;101741.03;;;8.64;100.00
20909;BME280;10614;53.198;6.570;2023-04-21T03:31:24;101749.75;;;8.63;100.00
20909;BME280;10614;53.198;6.570;2023-04-21T03:33:28;101741.03;;;8.61;100.00
20909;BME280;10614;53.198;6.570;2023-04-21T03:35:29;101745.44;;;8.61;100.00
20909;BME280;10614;53.198;6.570;2023-04-21T03:37:33;101743.72;;;8.60;100.00
20909;BME280;10614;53.198;6.570;2023-04-21T03:39:34;101744.63;;;8.57;100.00
20909;BME280;10614;53.198;6.570;2023-04-21T03:41:36;101744.63;;;8.57;100.00
20909;BME280;10614;53.198;6.570;2023-04-21T03:43:38;101745.56;;;8.55;100.00
20909;BME280;10614;53.198;6.570;2023-04-21T03:45:40;101737.72;;;8.53;100.00
20909;BME280;10614;53.198;6.570;2023-04-21T03:47:41;101746.47;;;8.52;100.00
20909;BME280;10614;53.198;6.570;2023-04-21T03:49:44;101742.09;;;8.51;100.00
20909;BME280;10614;53.198;6.570;2023-04-21T03:51:45;101742.97;;;8.52;100.00
20909;BME280;10614;53.198;6.570;2023-04-21T03:53:47;101729.00;;;8.51;100.00
20909;BME280;10614;53.198;6.570;2023-04-21T03:55:48;101728.16;;;8.49;100.00
20909;BME280;10614;53.198;6.570;2023-04-21T03:57:50;101723.81;;;8.48;100.00
20909;BME280;10614;53.198;6.570;2023-04-21T03:59:52;101728.19;;;8.48;100.00
20909;BME280;10614;53.198;6.570;2023-04-21T04:01:53;101725.59;;;8.46;100.00
20909;BME280;10614;53.198;6.570;2023-04-21T04:03:55;101722.97;;;8.44;100.00
20909;BME280;10614;53.198;6.570;2023-04-21T04:05:59;101723.88;;;8.43;100.00
20909;BME280;10614;53.198;6.570;2023-04-21T04:08:02;101724.75;;;8.42;100.00
20909;BME280;10614;53.198;6.570;2023-04-21T04:10:03;101716.94;;;8.41;100.00
20909;BME280;10614;53.198;6.570;2023-04-21T04:12:05;101716.06;;;8.39;100.00
20909;BME280;10614;53.198;6.570;2023-04-21T04:14:06;101710.81;;;8.37;100.00
20909;BME280;10614;53.198;6.570;2023-04-21T04:16:08;101708.25;;;8.36;100.00
20909;BME280;10614;53.198;6.570;2023-04-21T04:18:10;101709.09;;;8.36;100.00
20909;BME280;10614;53.198;6.570;2023-04-21T04:20:11;101716.13;;;8.34;100.00
20909;BME280;10614;53.198;6.570;2023-04-21T04:22:14;101717.00;;;8.33;100.00
20909;BME280;10614;53.198;6.570;2023-04-21T04:24:17;101712.66;;;8.32;100.00
20909;BME280;10614;53.198;6.570;2023-04-21T04:26:20;101714.38;;;8.33;100.00
20909;BME280;10614;53.198;6.570;2023-04-21T04:28:23;101717.00;;;8.33;100.00
20909;BME280;10614;53.198;6.570;2023-04-21T04:30:25;101705.69;;;8.31;100.00
20909;BME280;10614;53.198;6.570;2023-04-21T04:32:28;101709.19;;;8.30;100.00
20909;BME280;10614;53.198;6.570;2023-04-21T04:34:30;101717.09;;;8.29;100.00
20909;BME280;10614;53.198;6.570;2023-04-21T04:36:36;101717.97;;;8.29;100.00
20909;BME280;10614;53.198;6.570;2023-04-21T04:38:41;101720.59;;;8.29;100.00
20909;BME280;10614;53.198;6.570;2023-04-21T04:40:42;101709.22;;;8.29;100.00
20909;BME280;10614;53.198;6.570;2023-04-21T04:42:45;101723.22;;;8.29;100.00
20909;BME280;10614;53.198;6.570;2023-04-21T04:44:48;101720.59;;;8.29;100.00
20909;BME280;10614;53.198;6.570;2023-04-21T04:46:49;101716.22;;;8.28;100.00
20909;BME280;10614;53.198;6.570;2023-04-21T04:48:51;101729.38;;;8.27;100.00
20909;BME280;10614;53.198;6.570;2023-04-21T04:50:53;101725.84;;;8.28;100.00
20909;BME280;10614;53.198;6.570;2023-04-21T04:52:54;101725.00;;;8.27;100.00
20909;BME280;10614;53.198;6.570;2023-04-21T04:54:58;101731.97;;;8.28;100.00
20909;BME280;10614;53.198;6.570;2023-04-21T04:56:59;101728.50;;;8.26;100.00
20909;BME280;10614;53.198;6.570;2023-04-21T04:59:01;101725.00;;;8.27;100.00
20909;BME280;10614;53.198;6.570;2023-04-21T05:01:09;101728.47;;;8.28;100.00
20909;BME280;10614;53.198;6.570;2023-04-21T05:03:11;101735.50;;;8.27;100.00
20909;BME280;10614;53.198;6.570;2023-04-21T05:05:12;101726.75;;;8.27;100.00
20909;BME280;10614;53.198;6.570;2023-04-21T05:07:14;101732.88;;;8.27;100.00
20909;BME280;10614;53.198;6.570;2023-04-21T05:09:15;101730.25;;;8.27;100.00
20909;BME280;10614;53.198;6.570;2023-04-21T05:11:18;101740.72;;;8.27;100.00
20909;BME280;10614;53.198;6.570;2023-04-21T05:13:20;101741.59;;;8.28;100.00
20909;BME280;10614;53.198;6.570;2023-04-21T05:15:21;101745.97;;;8.27;100.00
20909;BME280;10614;53.198;6.570;2023-04-21T05:17:23;101742.44;;;8.28;100.00
20909;BME280;10614;53.198;6.570;2023-04-21T05:19:24;101745.06;;;8.28;100.00
20909;BME280;10614;53.198;6.570;2023-04-21T05:21:26;101748.56;;;8.29;100.00
20909;BME280;10614;53.198;6.570;2023-04-21T05:23:27;101738.97;;;8.29;100.00
20909;BME280;10614;53.198;6.570;2023-04-21T05:25:29;101745.06;;;8.30;100.00
20909;BME280;10614;53.198;6.570;2023-04-21T05:27:32;101739.81;;;8.31;100.00
20909;BME280;10614;53.198;6.570;2023-04-21T05:29:35;101732.78;;;8.32;100.00
20909;BME280;10614;53.198;6.570;2023-04-21T05:31:36;101733.66;;;8.32;100.00
20909;BME280;10614;53.198;6.570;2023-04-21T05:33:39;101745.00;;;8.33;100.00
20909;BME280;10614;53.198;6.570;2023-04-21T05:35:40;101746.75;;;8.32;100.00
20909;BME280;10614;53.198;6.570;2023-04-21T05:37:42;101738.00;;;8.33;100.00
20909;BME280;10614;53.198;6.570;2023-04-21T05:39:43;101742.38;;;8.34;100.00
20909;BME280;10614;53.198;6.570;2023-04-21T05:41:45;101747.59;;;8.36;100.00
20909;BME280;10614;53.198;6.570;2023-04-21T05:43:48;101749.31;;;8.38;100.00
20909;BME280;10614;53.198;6.570;2023-04-21T05:45:49;101746.69;;;8.38;100.00
20909;BME280;10614;53.198;6.570;2023-04-21T05:47:51;101744.91;;;8.39;100.00
20909;BME280;10614;53.198;6.570;2023-04-21T05:49:52;101744.03;;;8.41;100.00
20909;BME280;10614;53.198;6.570;2023-04-21T05:51:54;101751.88;;;8.43;100.00
20909;BME280;10614;53.198;6.570;2023-04-21T05:53:56;101751.00;;;8.42;100.00
20909;BME280;10614;53.198;6.570;2023-04-21T05:55:57;101746.63;;;8.43;100.00
20909;BME280;10614;53.198;6.570;2023-04-21T05:57:59;101737.84;;;8.44;100.00
20909;BME280;10614;53.198;6.570;2023-04-21T06:00:03;101741.31;;;8.48;100.00
20909;BME280;10614;53.198;6.570;2023-04-21T06:02:05;101741.28;;;8.49;100.00
20909;BME280;10614;53.198;6.570;2023-04-21T06:04:06;101738.69;;;8.48;100.00
20909;BME280;10614;53.198;6.570;2023-04-21T06:06:08;101737.78;;;8.50;100.00
20909;BME280;10614;53.198;6.570;2023-04-21T06:08:10;101738.63;;;8.52;100.00
20909;BME280;10614;53.198;6.570;2023-04-21T06:10:12;101740.34;;;8.53;100.00
20909;BME280;10614;53.198;6.570;2023-04-21T06:12:15;101733.31;;;8.54;100.00
20909;BME280;10614;53.198;6.570;2023-04-21T06:14:17;101736.78;;;8.57;100.00
20909;BME280;10614;53.198;6.570;2023-04-21T06:16:20;101732.38;;;8.59;100.00
20909;BME280;10614;53.198;6.570;2023-04-21T06:18:21;101727.06;;;8.61;100.00
20909;BME280;10614;53.198;6.570;2023-04-21T06:20:23;101721.81;;;8.62;100.00
20909;BME280;10614;53.198;6.570;2023-04-21T06:22:25;101711.38;;;8.58;100.00
20909;BME280;10614;53.198;6.570;2023-04-21T06:24:30;101732.25;;;8.65;100.00
20909;BME280;10614;53.198;6.570;2023-04-21T06:26:32;101727.81;;;8.68;100.00
20909;BME280;10614;53.198;6.570;2023-04-21T06:28:33;101738.25;;;8.71;100.00
20909;BME280;10614;53.198;6.570;2023-04-21T06:30:35;101730.38;;;8.72;100.00
20909;BME280;10614;53.198;6.570;2023-04-21T06:32:38;101740.81;;;8.75;100.00
20909;BME280;10614;53.198;6.570;2023-04-21T06:34:39;101736.41;;;8.77;100.00
20909;BME280;10614;53.198;6.570;2023-04-21T06:36:41;101728.50;;;8.79;100.00
20909;BME280;10614;53.198;6.570;2023-04-21T06:38:42;101722.34;;;8.81;100.00
20909;BME280;10614;53.198;6.570;2023-04-21T06:40:44;101732.75;;;8.84;100.00
20909;BME280;10614;53.198;6.570;2023-04-21T06:42:46;101720.47;;;8.86;100.00
20909;BME280;10614;53.198;6.570;2023-04-21T06:44:47;101729.19;;;8.90;100.00
20909;BME280;10614;53.198;6.570;2023-04-21T06:46:49;101733.50;;;8.93;100.00
20909;BME280;10614;53.198;6.570;2023-04-21T06:48:52;101717.69;;;8.96;100.00
20909;BME280;10614;53.198;6.570;2023-04-21T06:50:53;101722.84;;;9.00;100.00
20909;BME280;10614;53.198;6.570;2023-04-21T06:52:55;101723.69;;;9.02;100.00
20909;BME280;10614;53.198;6.570;2023-04-21T06:54:56;101722.69;;;9.08;100.00
20909;BME280;10614;53.198;6.570;2023-04-21T06:56:58;101725.28;;;9.11;100.00
20909;BME280;10614;53.198;6.570;2023-04-21T06:58:59;101718.19;;;9.15;100.00
20909;BME280;10614;53.198;6.570;2023-04-21T07:01:01;101715.50;;;9.18;100.00
20909;BME280;10614;53.198;6.570;2023-04-21T07:03:02;101721.56;;;9.21;100.00
20909;BME280;10614;53.198;6.570;2023-04-21T07:05:06;101715.38;;;9.24;100.00
20909;BME280;10614;53.198;6.570;2023-04-21T07:07:08;101716.22;;;9.26;100.00
20909;BME280;10614;53.198;6.570;2023-04-21T07:09:10;101721.38;;;9.30;100.00
20909;BME280;10614;53.198;6.570;2023-04-21T07:11:11;101719.56;;;9.34;100.00
20909;BME280;10614;53.198;6.570;2023-04-21T07:13:13;101718.56;;;9.38;100.00
20909;BME280;10614;53.198;6.570;2023-04-21T07:15:15;101715.09;;;9.36;100.00
20909;BME280;10614;53.198;6.570;2023-04-21T07:17:16;101714.06;;;9.45;100.00
20909;BME280;10614;53.198;6.570;2023-04-21T07:19:17;101718.34;;;9.49;100.00
20909;BME280;10614;53.198;6.570;2023-04-21T07:21:20;101714.78;;;9.51;100.00
20909;BME280;10614;53.198;6.570;2023-04-21T07:23:22;101714.72;;;9.55;100.00
20909;BME280;10614;53.198;6.570;2023-04-21T07:25:24;101701.47;;;9.59;100.00
20909;BME280;10614;53.198;6.570;2023-04-21T07:27:26;101701.44;;;9.62;100.00
20909;BME280;10614;53.198;6.570;2023-04-21T07:29:27;101714.47;;;9.67;100.00
20909;BME280;10614;53.198;6.570;2023-04-21T07:31:29;101714.34;;;9.71;100.00
20909;BME280;10614;53.198;6.570;2023-04-21T07:33:31;101716.88;;;9.76;100.00
20909;BME280;10614;53.198;6.570;2023-04-21T07:35:32;101715.91;;;9.80;100.00
20909;BME280;10614;53.198;6.570;2023-04-21T07:37:35;101715.81;;;9.85;100.00
20909;BME280;10614;53.198;6.570;2023-04-21T07:39:37;101721.88;;;9.88;100.00
20909;BME280;10614;53.198;6.570;2023-04-21T07:41:38;101720.06;;;9.90;100.00
20909;BME280;10614;53.198;6.570;2023-04-21T07:43:40;101720.81;;;9.96;100.00
20909;BME280;10614;53.198;6.570;2023-04-21T07:45:41;101725.16;;;9.98;100.00
20909;BME280;10614;53.198;6.570;2023-04-21T07:47:44;101722.41;;;10.03;100.00
20909;BME280;10614;53.198;6.570;2023-04-21T07:49:46;101716.22;;;10.05;100.00
20909;BME280;10614;53.198;6.570;2023-04-21T07:51:47;101712.66;;;10.06;100.00
20909;BME280;10614;53.198;6.570;2023-04-21T07:53:50;101707.28;;;10.11;100.00
20909;BME280;10614;53.198;6.570;2023-04-21T07:55:51;101711.59;;;10.13;100.00
20909;BME280;10614;53.198;6.570;2023-04-21T07:57:53;101714.19;;;10.17;100.00
20909;BME280;10614;53.198;6.570;2023-04-21T07:59:55;101705.25;;;10.22;100.00
20909;BME280;10614;53.198;6.570;2023-04-21T08:01:56;101705.16;;;10.27;100.00
20909;BME280;10614;53.198;6.570;2023-04-21T08:03:58;101704.19;;;10.32;100.00
20909;BME280;10614;53.198;6.570;2023-04-21T08:05:59;101708.50;;;10.35;100.00
20909;BME280;10614;53.198;6.570;2023-04-21T08:08:01;101706.63;;;10.40;100.00
20909;BME280;10614;53.198;6.570;2023-04-21T08:10:05;101700.41;;;10.43;100.00
20909;BME280;10614;53.198;6.570;2023-04-21T08:12:06;101701.13;;;10.49;100.00
20909;BME280;10614;53.198;6.570;2023-04-21T08:14:08;101698.44;;;10.51;100.00
20909;BME280;10614;53.198;6.570;2023-04-21T08:16:10;101700.94;;;10.55;100.00
20909;BME280;10614;53.198;6.570;2023-04-21T08:18:12;101689.47;;;10.58;100.00
20909;BME280;10614;53.198;6.570;2023-04-21T08:20:16;101692.88;;;10.63;100.00
20909;BME280;10614;53.198;6.570;2023-04-21T08:22:17;101692.78;;;10.66;100.00
20909;BME280;10614;53.198;6.570;2023-04-21T08:24:19;101692.69;;;10.69;100.00
20909;BME280;10614;53.198;6.570;2023-04-21T08:26:22;101695.19;;;10.74;100.00
20909;BME280;10614;53.198;6.570;2023-04-21T08:28:24;101692.41;;;10.80;100.00
20909;BME280;10614;53.198;6.570;2023-04-21T08:30:26;101688.69;;;10.87;100.00
20909;BME280;10614;53.198;6.570;2023-04-21T08:32:27;101689.44;;;10.91;100.00
20909;BME280;10614;53.198;6.570;2023-04-21T08:34:29;101686.75;;;10.94;100.00
20909;BME280;10614;53.198;6.570;2023-04-21T08:36:30;101684.88;;;10.97;100.00
20909;BME280;10614;53.198;6.570;2023-04-21T08:38:32;101693.59;;;10.99;100.00
20909;BME280;10614;53.198;6.570;2023-04-21T08:40:35;101685.53;;;11.06;100.00
20909;BME280;10614;53.198;6.570;2023-04-21T08:42:39;101679.28;;;11.10;100.00
20909;BME280;10614;53.198;6.570;2023-04-21T08:44:42;101681.78;;;11.14;100.00
20909;BME280;10614;53.198;6.570;2023-04-21T08:46:44;101683.47;;;11.17;100.00
20909;BME280;10614;53.198;6.570;2023-04-21T08:48:46;101677.19;;;11.21;100.00
20909;BME280;10614;53.198;6.570;2023-04-21T08:50:48;101677.97;;;11.25;100.00
20909;BME280;10614;53.198;6.570;2023-04-21T08:52:49;101682.28;;;11.27;100.00
20909;BME280;10614;53.198;6.570;2023-04-21T08:54:51;101676.88;;;11.32;100.00
20909;BME280;10614;53.198;6.570;2023-04-21T08:56:54;101665.34;;;11.36;100.00
20909;BME280;10614;53.198;6.570;2023-04-21T08:58:57;101676.56;;;11.43;100.00
20909;BME280;10614;53.198;6.570;2023-04-21T09:00:59;101676.44;;;11.47;100.00
20909;BME280;10614;53.198;6.570;2023-04-21T09:03:00;101666.53;;;11.54;100.00
20909;BME280;10614;53.198;6.570;2023-04-21T09:05:03;101673.41;;;11.59;100.00
20909;BME280;10614;53.198;6.570;2023-04-21T09:07:05;101666.22;;;11.65;100.00
20909;BME280;10614;53.198;6.570;2023-04-21T09:09:08;101657.16;;;11.73;100.00
20909;BME280;10614;53.198;6.570;2023-04-21T09:11:12;101657.88;;;11.78;100.00
20909;BME280;10614;53.198;6.570;2023-04-21T09:13:14;101655.94;;;11.83;100.00
20909;BME280;10614;53.198;6.570;2023-04-21T09:15:17;101649.81;;;11.83;100.00
20909;BME280;10614;53.198;6.570;2023-04-21T09:17:21;101655.66;;;11.93;100.00
20909;BME280;10614;53.198;6.570;2023-04-21T09:19:22;101656.34;;;11.99;100.00
20909;BME280;10614;53.198;6.570;2023-04-21T09:21:27;101656.06;;;12.07;100.00
20909;BME280;10614;53.198;6.570;2023-04-21T09:23:28;101655.81;;;12.15;100.00
20909;BME280;10614;53.198;6.570;2023-04-21T09:25:30;101653.91;;;12.20;100.00
20909;BME280;10614;53.198;6.570;2023-04-21T09:27:33;101658.00;;;12.29;100.00
20909;BME280;10614;53.198;6.570;2023-04-21T09:29:37;101654.22;;;12.36;100.00
20909;BME280;10614;53.198;6.570;2023-04-21T09:31:40;101648.78;;;12.40;100.00
20909;BME280;10614;53.198;6.570;2023-04-21T09:33:44;101653.97;;;12.43;100.00
20909;BME280;10614;53.198;6.570;2023-04-21T09:35:47;101641.50;;;12.47;100.00
20909;BME280;10614;53.198;6.570;2023-04-21T09:37:48;101643.09;;;12.53;100.00
20909;BME280;10614;53.198;6.570;2023-04-21T09:39:50;101643.72;;;12.59;100.00
20909;BME280;10614;53.198;6.570;2023-04-21T09:41:51;101644.34;;;12.66;100.00
20909;BME280;10614;53.198;6.570;2023-04-21T09:43:52;101644.19;;;12.71;100.00
20909;BME280;10614;53.198;6.570;2023-04-21T09:45:54;101637.78;;;12.78;100.00
20909;BME280;10614;53.198;6.570;2023-04-21T09:47:58;101644.50;;;12.86;100.00
20909;BME280;10614;53.198;6.570;2023-04-21T09:50:00;101639.00;;;12.93;100.00
20909;BME280;10614;53.198;6.570;2023-04-21T09:52:03;101641.41;;;12.99;100.00
20909;BME280;10614;53.198;6.570;2023-04-21T09:54:06;101627.22;;;13.01;100.00
20909;BME280;10614;53.198;6.570;2023-04-21T09:56:13;101634.97;;;13.06;100.00
20909;BME280;10614;53.198;6.570;2023-04-21T09:58:15;101645.31;;;13.12;100.00
20909;BME280;10614;53.198;6.570;2023-04-21T10:00:20;101634.53;;;13.18;100.00
20909;BME280;10614;53.198;6.570;2023-04-21T10:02:28;101630.66;;;13.27;99.62
20909;BME280;10614;53.198;6.570;2023-04-21T10:04:32;101625.97;;;13.35;98.45
20909;BME280;10614;53.198;6.570;2023-04-21T10:06:34;101623.94;;;13.42;97.72
20909;BME280;10614;53.198;6.570;2023-04-21T10:08:35;101625.44;;;13.49;97.51
20909;BME280;10614;53.198;6.570;2023-04-21T10:10:37;101625.16;;;13.55;97.11
20909;BME280;10614;53.198;6.570;2023-04-21T10:12:39;101624.88;;;13.63;96.40
20909;BME280;10614;53.198;6.570;2023-04-21T10:14:41;101614.97;;;13.68;95.86
20909;BME280;10614;53.198;6.570;2023-04-21T10:16:43;101616.44;;;13.75;95.28
20909;BME280;10614;53.198;6.570;2023-04-21T10:18:44;101608.31;;;13.80;94.89
20909;BME280;10614;53.198;6.570;2023-04-21T10:20:51;101601.88;;;13.85;94.41
20909;BME280;10614;53.198;6.570;2023-04-21T10:22:56;101601.78;;;13.88;93.98
20909;BME280;10614;53.198;6.570;2023-04-21T10:24:58;101598.16;;;13.91;93.73
20909;BME280;10614;53.198;6.570;2023-04-21T10:27:00;101592.53;;;13.99;93.15
20909;BME280;10614;53.198;6.570;2023-04-21T10:29:02;101583.38;;;14.06;92.91
20909;BME280;10614;53.198;6.570;2023-04-21T10:33:30;101587.25;;;14.19;91.83
20909;BME280;10614;53.198;6.570;2023-04-21T10:37:49;101578.59;;;14.34;90.57
20909;BME280;10614;53.198;6.570;2023-04-21T10:39:52;101581.78;;;14.43;90.06
20909;BME280;10614;53.198;6.570;2023-04-21T10:41:55;101572.75;;;14.47;89.85